sensor_id;sensor_type;location;lat;lon;timestamp;P1;durP1;ratioP1;P2;durP2;ratioP2
1024;SDS011;501;48.214;11.350;2022-09-12T00:01:02;6.90;;;3.77;;
1024;SDS011;501;48.214;11.350;2022-09-12T00:03:32;5.73;;;4.03;;
1024;SDS011;501;48.214;11.350;2022-09-12T00:05:58;4.77;;;3.70;;
1024;SDS011;501;48.214;11.350;2022-09-12T00:08:24;4.80;;;4.17;;
1024;SDS011;501;48.214;11.350;2022-09-12T00:10:49;4.33;;;3.87;;
1024;SDS011;501;48.214;11.350;2022-09-12T00:13:15;4.50;;;4.10;;
1024;SDS011;501;48.214;11.350;2022-09-12T00:15:41;4.50;;;4.10;;
1024;SDS011;501;48.214;11.350;2022-09-12T00:18:09;4.07;;;3.70;;
1024;SDS011;501;48.214;11.350;2022-09-12T00:20:42;3.80;;;3.47;;
1024;SDS011;501;48.214;11.350;2022-09-12T00:23:09;3.90;;;3.50;;
1024;SDS011;501;48.214;11.350;2022-09-12T00:25:45;4.20;;;3.80;;
1024;SDS011;501;48.214;11.350;2022-09-12T00:28:12;4.47;;;4.07;;
1024;SDS011;501;48.214;11.350;2022-09-12T00:30:43;4.00;;;3.60;;
1024;SDS011;501;48.214;11.350;2022-09-12T00:33:10;4.00;;;3.60;;
1024;SDS011;501;48.214;11.350;2022-09-12T00:35:40;4.40;;;3.27;;
1024;SDS011;501;48.214;11.350;2022-09-12T00:38:06;3.57;;;3.27;;
1024;SDS011;501;48.214;11.350;2022-09-12T00:40:32;4.00;;;3.60;;
1024;SDS011;501;48.214;11.350;2022-09-12T00:42:57;3.87;;;3.47;;
1024;SDS011;501;48.214;11.350;2022-09-12T00:45:24;4.30;;;4.00;;
1024;SDS011;501;48.214;11.350;2022-09-12T00:47:53;4.43;;;3.40;;
1024;SDS011;501;48.214;11.350;2022-09-12T00:50:20;4.10;;;3.10;;
1024;SDS011;501;48.214;11.350;2022-09-12T00:52:49;4.27;;;3.30;;
1024;SDS011;501;48.214;11.350;2022-09-12T00:55:20;4.27;;;3.87;;
1024;SDS011;501;48.214;11.350;2022-09-12T00:57:50;4.10;;;3.43;;
1024;SDS011;501;48.214;11.350;2022-09-12T01:00:19;3.10;;;2.80;;
1024;SDS011;501;48.214;11.350;2022-09-12T01:02:57;4.63;;;4.03;;
1024;SDS011;501;48.214;11.350;2022-09-12T01:05:29;3.60;;;3.30;;
1024;SDS011;501;48.214;11.350;2022-09-12T01:07:58;4.10;;;3.70;;
1024;SDS011;501;48.214;11.350;2022-09-12T01:10:26;4.20;;;3.80;;
1024;SDS011;501;48.214;11.350;2022-09-12T01:12:52;3.27;;;2.97;;
1024;SDS011;501;48.214;11.350;2022-09-12T01:15:18;4.10;;;3.70;;
1024;SDS011;501;48.214;11.350;2022-09-12T01:20:20;4.00;;;3.47;;
1024;SDS011;501;48.214;11.350;2022-09-12T01:31:04;4.40;;;4.00;;
1024;SDS011;501;48.214;11.350;2022-09-12T01:36:50;3.57;;;3.27;;
1024;SDS011;501;48.214;11.350;2022-09-12T01:39:38;3.83;;;3.23;;
1024;SDS011;501;48.214;11.350;2022-09-12T01:42:20;6.87;;;3.27;;
1024;SDS011;501;48.214;11.350;2022-09-12T01:44:59;3.83;;;3.17;;
1024;SDS011;501;48.214;11.350;2022-09-12T01:47:44;2.67;;;2.17;;
1024;SDS011;501;48.214;11.350;2022-09-12T01:50:20;7.03;;;3.30;;
1024;SDS011;501;48.214;11.350;2022-09-12T01:53:01;3.73;;;3.43;;
1024;SDS011;501;48.214;11.350;2022-09-12T01:55:55;3.43;;;3.10;;
1024;SDS011;501;48.214;11.350;2022-09-12T01:59:10;3.73;;;3.10;;
1024;SDS011;501;48.214;11.350;2022-09-12T02:01:59;3.20;;;2.90;;
1024;SDS011;501;48.214;11.350;2022-09-12T02:04:28;3.10;;;2.90;;
1024;SDS011;501;48.214;11.350;2022-09-12T02:07:05;2.80;;;2.60;;
1024;SDS011;501;48.214;11.350;2022-09-12T02:12:10;3.10;;;2.80;;
1024;SDS011;501;48.214;11.350;2022-09-12T02:14:46;3.10;;;2.80;;
1024;SDS011;501;48.214;11.350;2022-09-12T02:17:17;2.90;;;2.70;;
1024;SDS011;501;48.214;11.350;2022-09-12T02:19:48;2.43;;;2.23;;
1024;SDS011;501;48.214;11.350;2022-09-12T02:22:19;3.03;;;2.70;;
1024;SDS011;501;48.214;11.350;2022-09-12T02:24:47;4.80;;;3.17;;
1024;SDS011;501;48.214;11.350;2022-09-12T02:27:22;6.00;;;2.80;;
1024;SDS011;501;48.214;11.350;2022-09-12T02:29:52;3.70;;;2.87;;
1024;SDS011;501;48.214;11.350;2022-09-12T02:32:37;3.30;;;2.93;;
1024;SDS011;501;48.214;11.350;2022-09-12T02:38:13;4.07;;;3.00;;
1024;SDS011;501;48.214;11.350;2022-09-12T02:40:49;2.90;;;2.70;;
1024;SDS011;501;48.214;11.350;2022-09-12T02:43:15;2.77;;;2.57;;
1024;SDS011;501;48.214;11.350;2022-09-12T02:45:40;3.17;;;2.80;;
1024;SDS011;501;48.214;11.350;2022-09-12T02:48:11;3.30;;;3.00;;
1024;SDS011;501;48.214;11.350;2022-09-12T02:50:55;2.90;;;2.70;;
1024;SDS011;501;48.214;11.350;2022-09-12T02:53:21;2.67;;;2.47;;
1024;SDS011;501;48.214;11.350;2022-09-12T02:55:47;3.07;;;2.60;;
1024;SDS011;501;48.214;11.350;2022-09-12T02:58:15;2.73;;;2.53;;
1024;SDS011;501;48.214;11.350;2022-09-12T03:01:07;3.53;;;3.23;;
1024;SDS011;501;48.214;11.350;2022-09-12T03:03:53;2.57;;;2.27;;
1024;SDS011;501;48.214;11.350;2022-09-12T03:15:16;2.40;;;2.20;;
1024;SDS011;501;48.214;11.350;2022-09-12T03:20:40;2.70;;;2.50;;
1024;SDS011;501;48.214;11.350;2022-09-12T03:28:33;4.83;;;2.20;;
1024;SDS011;501;48.214;11.350;2022-09-12T03:31:10;5.80;;;2.70;;
1024;SDS011;501;48.214;11.350;2022-09-12T03:33:40;4.87;;;3.10;;
1024;SDS011;501;48.214;11.350;2022-09-12T03:36:06;4.03;;;2.87;;
1024;SDS011;501;48.214;11.350;2022-09-12T03:38:38;3.67;;;3.27;;
1024;SDS011;501;48.214;11.350;2022-09-12T03:41:04;2.67;;;2.47;;
1024;SDS011;501;48.214;11.350;2022-09-12T03:43:29;2.80;;;2.60;;
1024;SDS011;501;48.214;11.350;2022-09-12T03:45:55;2.57;;;2.37;;
1024;SDS011;501;48.214;11.350;2022-09-12T03:48:21;3.80;;;2.83;;
1024;SDS011;501;48.214;11.350;2022-09-12T03:50:46;2.47;;;2.27;;
1024;SDS011;501;48.214;11.350;2022-09-12T03:53:12;1.93;;;1.83;;
1024;SDS011;501;48.214;11.350;2022-09-12T03:55:38;2.40;;;2.20;;
1024;SDS011;501;48.214;11.350;2022-09-12T03:58:04;2.53;;;2.17;;
1024;SDS011;501;48.214;11.350;2022-09-12T04:00:30;2.20;;;2.00;;
1024;SDS011;501;48.214;11.350;2022-09-12T04:02:55;2.90;;;2.17;;
1024;SDS011;501;48.214;11.350;2022-09-12T04:05:22;8.97;;;2.20;;
1024;SDS011;501;48.214;11.350;2022-09-12T04:07:48;2.47;;;2.27;;
1024;SDS011;501;48.214;11.350;2022-09-12T04:10:14;2.63;;;2.43;;
1024;SDS011;501;48.214;11.350;2022-09-12T04:12:40;2.90;;;2.60;;
1024;SDS011;501;48.214;11.350;2022-09-12T04:15:06;2.37;;;2.17;;
1024;SDS011;501;48.214;11.350;2022-09-12T04:17:33;2.40;;;2.20;;
1024;SDS011;501;48.214;11.350;2022-09-12T04:19:59;1.90;;;1.80;;
1024;SDS011;501;48.214;11.350;2022-09-12T04:22:24;2.27;;;2.07;;
1024;SDS011;501;48.214;11.350;2022-09-12T04:24:50;3.03;;;2.57;;
1024;SDS011;501;48.214;11.350;2022-09-12T04:27:16;3.03;;;2.73;;
1024;SDS011;501;48.214;11.350;2022-09-12T04:29:41;2.90;;;2.60;;
1024;SDS011;501;48.214;11.350;2022-09-12T04:32:07;3.40;;;2.67;;
1024;SDS011;501;48.214;11.350;2022-09-12T04:34:33;6.23;;;2.93;;
1024;SDS011;501;48.214;11.350;2022-09-12T04:36:59;2.40;;;2.20;;
1024;SDS011;501;48.214;11.350;2022-09-12T04:39:25;2.90;;;2.63;;
1024;SDS011;501;48.214;11.350;2022-09-12T04:41:50;3.47;;;2.37;;
1024;SDS011;501;48.214;11.350;2022-09-12T04:44:16;3.20;;;3.00;;
1024;SDS011;501;48.214;11.350;2022-09-12T04:46:42;2.40;;;2.20;;
1024;SDS011;501;48.214;11.350;2022-09-12T04:49:10;3.50;;;2.23;;
1024;SDS011;501;48.214;11.350;2022-09-12T04:51:37;3.10;;;2.10;;
1024;SDS011;501;48.214;11.350;2022-09-12T04:54:09;2.57;;;2.37;;
1024;SDS011;501;48.214;11.350;2022-09-12T04:56:37;2.10;;;1.90;;
1024;SDS011;501;48.214;11.350;2022-09-12T04:59:04;2.40;;;2.20;;
1024;SDS011;501;48.214;11.350;2022-09-12T05:01:31;2.57;;;2.07;;
1024;SDS011;501;48.214;11.350;2022-09-12T05:03:57;2.30;;;2.10;;
1024;SDS011;501;48.214;11.350;2022-09-12T05:06:25;2.73;;;2.53;;
1024;SDS011;501;48.214;11.350;2022-09-12T05:08:52;1.93;;;1.73;;
1024;SDS011;501;48.214;11.350;2022-09-12T05:11:20;3.03;;;2.00;;
1024;SDS011;501;48.214;11.350;2022-09-12T05:13:48;2.10;;;1.90;;
1024;SDS011;501;48.214;11.350;2022-09-12T05:16:15;2.30;;;1.80;;
1024;SDS011;501;48.214;11.350;2022-09-12T05:18:42;2.23;;;1.90;;
1024;SDS011;501;48.214;11.350;2022-09-12T05:21:09;2.67;;;2.47;;
1024;SDS011;501;48.214;11.350;2022-09-12T05:23:36;2.37;;;2.17;;
1024;SDS011;501;48.214;11.350;2022-09-12T05:26:02;2.27;;;2.07;;
1024;SDS011;501;48.214;11.350;2022-09-12T05:28:31;5.80;;;2.37;;
1024;SDS011;501;48.214;11.350;2022-09-12T05:33:48;3.07;;;2.20;;
1024;SDS011;501;48.214;11.350;2022-09-12T05:36:17;3.50;;;3.10;;
1024;SDS011;501;48.214;11.350;2022-09-12T05:38:44;3.27;;;3.03;;
1024;SDS011;501;48.214;11.350;2022-09-12T05:41:12;3.40;;;2.97;;
1024;SDS011;501;48.214;11.350;2022-09-12T05:43:40;2.90;;;2.60;;
1024;SDS011;501;48.214;11.350;2022-09-12T05:46:11;4.23;;;2.63;;
1024;SDS011;501;48.214;11.350;2022-09-12T05:48:39;5.10;;;3.03;;
1024;SDS011;501;48.214;11.350;2022-09-12T05:51:10;3.90;;;3.37;;
1024;SDS011;501;48.214;11.350;2022-09-12T05:53:38;3.77;;;3.47;;
1024;SDS011;501;48.214;11.350;2022-09-12T05:56:08;3.40;;;3.10;;
1024;SDS011;501;48.214;11.350;2022-09-12T05:58:42;2.63;;;2.43;;
1024;SDS011;501;48.214;11.350;2022-09-12T06:01:10;2.70;;;2.47;;
1024;SDS011;501;48.214;11.350;2022-09-12T06:03:39;2.80;;;2.60;;
1024;SDS011;501;48.214;11.350;2022-09-12T06:06:09;3.00;;;2.70;;
1024;SDS011;501;48.214;11.350;2022-09-12T06:08:39;2.60;;;2.40;;
1024;SDS011;501;48.214;11.350;2022-09-12T06:11:07;2.97;;;2.73;;
1024;SDS011;501;48.214;11.350;2022-09-12T06:13:34;3.03;;;2.73;;
1024;SDS011;501;48.214;11.350;2022-09-12T06:16:02;3.50;;;3.20;;
1024;SDS011;501;48.214;11.350;2022-09-12T06:18:35;2.63;;;2.43;;
1024;SDS011;501;48.214;11.350;2022-09-12T06:21:03;4.33;;;2.30;;
1024;SDS011;501;48.214;11.350;2022-09-12T06:23:30;2.70;;;2.50;;
1024;SDS011;501;48.214;11.350;2022-09-12T06:25:56;2.70;;;2.50;;
1024;SDS011;501;48.214;11.350;2022-09-12T06:28:22;2.23;;;2.03;;
1024;SDS011;501;48.214;11.350;2022-09-12T06:30:48;2.43;;;2.30;;
1024;SDS011;501;48.214;11.350;2022-09-12T06:33:14;2.27;;;2.07;;
1024;SDS011;501;48.214;11.350;2022-09-12T06:35:40;2.60;;;2.17;;
1024;SDS011;501;48.214;11.350;2022-09-12T06:38:05;2.70;;;2.50;;
1024;SDS011;501;48.214;11.350;2022-09-12T06:40:31;2.47;;;2.27;;
1024;SDS011;501;48.214;11.350;2022-09-12T06:42:57;3.63;;;2.20;;
1024;SDS011;501;48.214;11.350;2022-09-12T06:45:23;2.63;;;2.43;;
1024;SDS011;501;48.214;11.350;2022-09-12T06:47:50;2.07;;;1.97;;
1024;SDS011;501;48.214;11.350;2022-09-12T06:50:16;3.10;;;2.33;;
1024;SDS011;501;48.214;11.350;2022-09-12T06:52:41;2.70;;;2.00;;
1024;SDS011;501;48.214;11.350;2022-09-12T06:55:08;3.33;;;2.47;;
1024;SDS011;501;48.214;11.350;2022-09-12T06:57:34;2.97;;;2.67;;
1024;SDS011;501;48.214;11.350;2022-09-12T07:00:05;2.10;;;1.90;;
1024;SDS011;501;48.214;11.350;2022-09-12T07:02:32;3.77;;;2.23;;
1024;SDS011;501;48.214;11.350;2022-09-12T07:04:57;2.40;;;2.20;;
1024;SDS011;501;48.214;11.350;2022-09-12T07:07:23;2.57;;;2.37;;
1024;SDS011;501;48.214;11.350;2022-09-12T07:09:48;2.30;;;2.10;;
1024;SDS011;501;48.214;11.350;2022-09-12T07:12:14;2.37;;;2.17;;
1024;SDS011;501;48.214;11.350;2022-09-12T07:14:40;5.37;;;1.97;;
1024;SDS011;501;48.214;11.350;2022-09-12T07:17:06;2.20;;;1.97;;
1024;SDS011;501;48.214;11.350;2022-09-12T07:19:32;1.73;;;1.53;;
1024;SDS011;501;48.214;11.350;2022-09-12T07:21:58;2.60;;;2.33;;
1024;SDS011;501;48.214;11.350;2022-09-12T07:24:24;2.50;;;2.30;;
1024;SDS011;501;48.214;11.350;2022-09-12T07:26:50;2.97;;;2.40;;
1024;SDS011;501;48.214;11.350;2022-09-12T07:29:16;2.20;;;2.00;;
1024;SDS011;501;48.214;11.350;2022-09-12T07:31:42;2.10;;;1.90;;
1024;SDS011;501;48.214;11.350;2022-09-12T07:34:07;1.83;;;1.70;;
1024;SDS011;501;48.214;11.350;2022-09-12T07:36:33;7.80;;;2.03;;
1024;SDS011;501;48.214;11.350;2022-09-12T07:38:59;2.27;;;2.03;;
1024;SDS011;501;48.214;11.350;2022-09-12T07:41:26;2.40;;;2.20;;
1024;SDS011;501;48.214;11.350;2022-09-12T07:43:55;2.33;;;2.17;;
1024;SDS011;501;48.214;11.350;2022-09-12T07:46:22;3.47;;;2.17;;
1024;SDS011;501;48.214;11.350;2022-09-12T07:48:50;2.20;;;2.10;;
1024;SDS011;501;48.214;11.350;2022-09-12T07:51:17;3.07;;;2.10;;
1024;SDS011;501;48.214;11.350;2022-09-12T07:53:46;2.07;;;1.87;;
1024;SDS011;501;48.214;11.350;2022-09-12T07:56:13;2.37;;;2.17;;
1024;SDS011;501;48.214;11.350;2022-09-12T07:58:40;3.17;;;2.87;;
1024;SDS011;501;48.214;11.350;2022-09-12T08:01:07;2.60;;;2.40;;
1024;SDS011;501;48.214;11.350;2022-09-12T08:03:41;2.70;;;2.50;;
1024;SDS011;501;48.214;11.350;2022-09-12T08:06:09;2.40;;;2.30;;
1024;SDS011;501;48.214;11.350;2022-09-12T08:08:38;2.30;;;2.13;;
1024;SDS011;501;48.214;11.350;2022-09-12T08:11:05;2.10;;;1.90;;
1024;SDS011;501;48.214;11.350;2022-09-12T08:13:33;2.17;;;2.07;;
1024;SDS011;501;48.214;11.350;2022-09-12T08:16:00;3.13;;;2.93;;
1024;SDS011;501;48.214;11.350;2022-09-12T08:18:28;6.60;;;2.37;;
1024;SDS011;501;48.214;11.350;2022-09-12T08:21:00;2.80;;;2.60;;
1024;SDS011;501;48.214;11.350;2022-09-12T08:23:27;2.97;;;2.77;;
1024;SDS011;501;48.214;11.350;2022-09-12T08:26:00;2.53;;;2.33;;
1024;SDS011;501;48.214;11.350;2022-09-12T08:28:28;4.70;;;2.40;;
1024;SDS011;501;48.214;11.350;2022-09-12T08:30:59;2.73;;;2.53;;
1024;SDS011;501;48.214;11.350;2022-09-12T08:33:25;2.73;;;2.17;;
1024;SDS011;501;48.214;11.350;2022-09-12T08:36:01;2.40;;;2.20;;
1024;SDS011;501;48.214;11.350;2022-09-12T08:38:41;2.30;;;2.10;;
1024;SDS011;501;48.214;11.350;2022-09-12T08:50:03;3.00;;;2.70;;
1024;SDS011;501;48.214;11.350;2022-09-12T08:52:54;3.23;;;2.90;;
1024;SDS011;501;48.214;11.350;2022-09-12T08:55:33;3.57;;;3.27;;
1024;SDS011;501;48.214;11.350;2022-09-12T08:58:08;3.97;;;3.47;;
1024;SDS011;501;48.214;11.350;2022-09-12T09:01:01;3.43;;;3.13;;
1024;SDS011;501;48.214;11.350;2022-09-12T09:03:43;4.97;;;3.40;;
1024;SDS011;501;48.214;11.350;2022-09-12T09:06:16;5.40;;;4.00;;
1024;SDS011;501;48.214;11.350;2022-09-12T09:09:04;6.50;;;4.07;;
1024;SDS011;501;48.214;11.350;2022-09-12T09:11:59;6.50;;;4.03;;
1024;SDS011;501;48.214;11.350;2022-09-12T09:17:52;4.17;;;3.77;;
1024;SDS011;501;48.214;11.350;2022-09-12T09:20:27;6.43;;;4.50;;
1024;SDS011;501;48.214;11.350;2022-09-12T09:23:38;4.27;;;3.87;;
1024;SDS011;501;48.214;11.350;2022-09-12T09:28:41;5.20;;;4.70;;
1024;SDS011;501;48.214;11.350;2022-09-12T09:31:19;4.70;;;3.93;;
1024;SDS011;501;48.214;11.350;2022-09-12T09:33:48;4.23;;;3.80;;
1024;SDS011;501;48.214;11.350;2022-09-12T09:45:02;3.73;;;3.40;;
1024;SDS011;501;48.214;11.350;2022-09-12T09:47:40;4.57;;;4.10;;
1024;SDS011;501;48.214;11.350;2022-09-12T09:50:11;5.00;;;4.53;;
1024;SDS011;501;48.214;11.350;2022-09-12T09:52:40;5.53;;;4.60;;
1024;SDS011;501;48.214;11.350;2022-09-12T09:55:09;6.00;;;5.40;;
1024;SDS011;501;48.214;11.350;2022-09-12T09:57:39;6.87;;;5.60;;
1024;SDS011;501;48.214;11.350;2022-09-12T10:00:28;5.40;;;4.90;;
1024;SDS011;501;48.214;11.350;2022-09-12T10:03:03;6.00;;;5.50;;
1024;SDS011;501;48.214;11.350;2022-09-12T10:05:33;6.53;;;5.63;;
1024;SDS011;501;48.214;11.350;2022-09-12T10:08:09;5.50;;;5.00;;
1024;SDS011;501;48.214;11.350;2022-09-12T10:11:43;6.50;;;5.80;;
1024;SDS011;501;48.214;11.350;2022-09-12T10:16:31;5.43;;;4.93;;
1024;SDS011;501;48.214;11.350;2022-09-12T10:18:59;4.47;;;4.07;;
1024;SDS011;501;48.214;11.350;2022-09-12T10:23:59;4.60;;;4.20;;
1024;SDS011;501;48.214;11.350;2022-09-12T10:26:25;3.90;;;3.60;;
1024;SDS011;501;48.214;11.350;2022-09-12T10:28:55;4.00;;;3.70;;
1024;SDS011;501;48.214;11.350;2022-09-12T10:31:28;3.70;;;3.40;;
1024;SDS011;501;48.214;11.350;2022-09-12T10:34:03;3.87;;;3.43;;
1024;SDS011;501;48.214;11.350;2022-09-12T10:36:36;5.07;;;3.70;;
1024;SDS011;501;48.214;11.350;2022-09-12T10:39:03;3.90;;;3.40;;
1024;SDS011;501;48.214;11.350;2022-09-12T10:41:34;4.83;;;4.17;;
1024;SDS011;501;48.214;11.350;2022-09-12T10:44:06;3.50;;;3.20;;
1024;SDS011;501;48.214;11.350;2022-09-12T10:46:34;3.10;;;2.90;;
1024;SDS011;501;48.214;11.350;2022-09-12T10:51:45;3.67;;;3.37;;
1024;SDS011;501;48.214;11.350;2022-09-12T10:54:11;3.53;;;3.23;;
1024;SDS011;501;48.214;11.350;2022-09-12T10:56:55;3.43;;;3.10;;
1024;SDS011;501;48.214;11.350;2022-09-12T11:05:43;4.53;;;2.67;;
1024;SDS011;501;48.214;11.350;2022-09-12T11:08:22;3.50;;;2.70;;
1024;SDS011;501;48.214;11.350;2022-09-12T11:30:16;3.37;;;2.30;;
1024;SDS011;501;48.214;11.350;2022-09-12T11:35:30;2.83;;;2.63;;
1024;SDS011;501;48.214;11.350;2022-09-12T11:38:00;2.53;;;2.33;;
1024;SDS011;501;48.214;11.350;2022-09-12T11:41:22;2.40;;;2.23;;
1024;SDS011;501;48.214;11.350;2022-09-12T11:43:56;2.97;;;2.67;;
1024;SDS011;501;48.214;11.350;2022-09-12T11:57:10;2.87;;;2.67;;
1024;SDS011;501;48.214;11.350;2022-09-12T12:02:11;2.60;;;2.40;;
1024;SDS011;501;48.214;11.350;2022-09-12T12:04:47;2.93;;;2.73;;
1024;SDS011;501;48.214;11.350;2022-09-12T12:07:26;2.63;;;2.20;;
1024;SDS011;501;48.214;11.350;2022-09-12T12:10:01;2.33;;;2.13;;
1024;SDS011;501;48.214;11.350;2022-09-12T12:12:29;2.77;;;2.57;;
1024;SDS011;501;48.214;11.350;2022-09-12T12:14:55;2.57;;;2.40;;
1024;SDS011;501;48.214;11.350;2022-09-12T12:17:23;3.30;;;3.00;;
1024;SDS011;501;48.214;11.350;2022-09-12T12:19:57;2.93;;;2.40;;
1024;SDS011;501;48.214;11.350;2022-09-12T12:22:25;2.63;;;2.33;;
1024;SDS011;501;48.214;11.350;2022-09-12T12:24:56;2.77;;;2.57;;
1024;SDS011;501;48.214;11.350;2022-09-12T12:27:49;2.70;;;2.47;;
1024;SDS011;501;48.214;11.350;2022-09-12T12:36:01;3.20;;;2.43;;
1024;SDS011;501;48.214;11.350;2022-09-12T12:38:29;1.87;;;1.77;;
1024;SDS011;501;48.214;11.350;2022-09-12T12:41:47;1.97;;;1.87;;
1024;SDS011;501;48.214;11.350;2022-09-12T12:43:51;5.70;;;2.07;;
1024;SDS011;501;48.214;11.350;2022-09-12T12:46:24;2.03;;;1.93;;
1024;SDS011;501;48.214;11.350;2022-09-12T12:49:08;1.97;;;1.87;;
1024;SDS011;501;48.214;11.350;2022-09-12T12:51:54;1.97;;;1.87;;
1024;SDS011;501;48.214;11.350;2022-09-12T12:57:03;2.90;;;2.30;;
1024;SDS011;501;48.214;11.350;2022-09-12T13:00:24;1.87;;;1.77;;
1024;SDS011;501;48.214;11.350;2022-09-12T13:05:20;2.00;;;1.63;;
1024;SDS011;501;48.214;11.350;2022-09-12T13:07:55;2.10;;;2.00;;
1024;SDS011;501;48.214;11.350;2022-09-12T13:10:26;2.00;;;1.83;;
1024;SDS011;501;48.214;11.350;2022-09-12T13:12:54;1.97;;;1.80;;
1024;SDS011;501;48.214;11.350;2022-09-12T13:18:10;1.87;;;1.60;;
1024;SDS011;501;48.214;11.350;2022-09-12T13:20:46;1.70;;;1.60;;
1024;SDS011;501;48.214;11.350;2022-09-12T13:23:20;1.90;;;1.80;;
1024;SDS011;501;48.214;11.350;2022-09-12T13:25:57;2.10;;;1.90;;
1024;SDS011;501;48.214;11.350;2022-09-12T13:28:25;2.17;;;1.97;;
1024;SDS011;501;48.214;11.350;2022-09-12T13:33:36;1.73;;;1.63;;
1024;SDS011;501;48.214;11.350;2022-09-12T13:39:13;2.20;;;1.73;;
1024;SDS011;501;48.214;11.350;2022-09-12T13:41:53;1.77;;;1.67;;
1024;SDS011;501;48.214;11.350;2022-09-12T13:44:24;2.00;;;1.90;;
1024;SDS011;501;48.214;11.350;2022-09-12T13:46:51;1.97;;;1.87;;
1024;SDS011;501;48.214;11.350;2022-09-12T13:49:34;1.67;;;1.57;;
1024;SDS011;501;48.214;11.350;2022-09-12T13:52:03;1.93;;;1.83;;
1024;SDS011;501;48.214;11.350;2022-09-12T13:54:33;3.30;;;1.90;;
1024;SDS011;501;48.214;11.350;2022-09-12T13:57:02;1.87;;;1.60;;
1024;SDS011;501;48.214;11.350;2022-09-12T13:59:38;2.17;;;2.07;;
1024;SDS011;501;48.214;11.350;2022-09-12T14:02:18;2.23;;;2.03;;
1024;SDS011;501;48.214;11.350;2022-09-12T14:04:48;2.00;;;1.17;;
1024;SDS011;501;48.214;11.350;2022-09-12T14:07:33;1.60;;;1.50;;
1024;SDS011;501;48.214;11.350;2022-09-12T14:10:15;1.80;;;1.50;;
1024;SDS011;501;48.214;11.350;2022-09-12T14:12:45;2.30;;;2.00;;
1024;SDS011;501;48.214;11.350;2022-09-12T14:15:19;1.80;;;1.70;;
1024;SDS011;501;48.214;11.350;2022-09-12T14:17:51;3.40;;;2.00;;
1024;SDS011;501;48.214;11.350;2022-09-12T14:20:19;1.67;;;1.57;;
1024;SDS011;501;48.214;11.350;2022-09-12T14:22:47;1.87;;;1.40;;
1024;SDS011;501;48.214;11.350;2022-09-12T14:25:15;2.10;;;1.60;;
1024;SDS011;501;48.214;11.350;2022-09-12T14:27:44;1.60;;;1.50;;
1024;SDS011;501;48.214;11.350;2022-09-12T14:33:04;2.40;;;1.53;;
1024;SDS011;501;48.214;11.350;2022-09-12T14:35:44;1.40;;;1.33;;
1024;SDS011;501;48.214;11.350;2022-09-12T14:38:33;1.60;;;1.50;;
1024;SDS011;501;48.214;11.350;2022-09-12T14:41:02;2.00;;;1.90;;
1024;SDS011;501;48.214;11.350;2022-09-12T14:43:32;2.10;;;1.83;;
1024;SDS011;501;48.214;11.350;2022-09-12T14:46:04;1.93;;;1.83;;
1024;SDS011;501;48.214;11.350;2022-09-12T14:48:34;1.80;;;1.70;;
1024;SDS011;501;48.214;11.350;2022-09-12T14:51:06;1.70;;;1.60;;
1024;SDS011;501;48.214;11.350;2022-09-12T14:53:33;2.23;;;1.90;;
1024;SDS011;501;48.214;11.350;2022-09-12T14:58:32;1.80;;;1.47;;
1024;SDS011;501;48.214;11.350;2022-09-12T15:03:48;2.20;;;2.00;;
1024;SDS011;501;48.214;11.350;2022-09-12T15:06:21;2.07;;;1.87;;
1024;SDS011;501;48.214;11.350;2022-09-12T15:08:47;1.80;;;1.70;;
1024;SDS011;501;48.214;11.350;2022-09-12T15:11:13;2.27;;;1.80;;
1024;SDS011;501;48.214;11.350;2022-09-12T15:13:39;1.67;;;1.57;;
1024;SDS011;501;48.214;11.350;2022-09-12T15:16:06;2.00;;;1.90;;
1024;SDS011;501;48.214;11.350;2022-09-12T15:18:34;1.73;;;1.63;;
1024;SDS011;501;48.214;11.350;2022-09-12T15:21:01;1.57;;;1.47;;
1024;SDS011;501;48.214;11.350;2022-09-12T15:23:36;1.60;;;1.50;;
1024;SDS011;501;48.214;11.350;2022-09-12T15:26:04;1.87;;;1.77;;
1024;SDS011;501;48.214;11.350;2022-09-12T15:28:31;2.30;;;2.10;;
1024;SDS011;501;48.214;11.350;2022-09-12T15:30:59;1.87;;;1.77;;
1024;SDS011;501;48.214;11.350;2022-09-12T15:33:30;1.93;;;1.77;;
1024;SDS011;501;48.214;11.350;2022-09-12T15:35:56;2.03;;;1.77;;
1024;SDS011;501;48.214;11.350;2022-09-12T15:38:22;2.00;;;1.87;;
1024;SDS011;501;48.214;11.350;2022-09-12T15:40:50;2.27;;;2.07;;
1024;SDS011;501;48.214;11.350;2022-09-12T15:43:20;2.53;;;2.33;;
1024;SDS011;501;48.214;11.350;2022-09-12T15:45:47;3.50;;;2.40;;
1024;SDS011;501;48.214;11.350;2022-09-12T15:48:14;2.90;;;2.70;;
1024;SDS011;501;48.214;11.350;2022-09-12T15:50:40;2.27;;;2.00;;
1024;SDS011;501;48.214;11.350;2022-09-12T15:53:07;2.70;;;2.50;;
1024;SDS011;501;48.214;11.350;2022-09-12T15:55:38;2.03;;;1.90;;
1024;SDS011;501;48.214;11.350;2022-09-12T15:58:03;2.00;;;1.90;;
1024;SDS011;501;48.214;11.350;2022-09-12T16:00:29;2.27;;;2.07;;
1024;SDS011;501;48.214;11.350;2022-09-12T16:02:55;1.70;;;1.60;;
1024;SDS011;501;48.214;11.350;2022-09-12T16:05:22;2.00;;;1.83;;
1024;SDS011;501;48.214;11.350;2022-09-12T16:07:50;1.53;;;1.43;;
1024;SDS011;501;48.214;11.350;2022-09-12T16:10:23;2.10;;;2.00;;
1024;SDS011;501;48.214;11.350;2022-09-12T16:12:51;2.00;;;1.90;;
1024;SDS011;501;48.214;11.350;2022-09-12T16:15:21;2.07;;;1.97;;
1024;SDS011;501;48.214;11.350;2022-09-12T16:17:48;2.00;;;1.80;;
1024;SDS011;501;48.214;11.350;2022-09-12T16:20:13;2.37;;;2.17;;
1024;SDS011;501;48.214;11.350;2022-09-12T16:22:39;2.50;;;1.77;;
1024;SDS011;501;48.214;11.350;2022-09-12T16:25:06;2.70;;;1.93;;
1024;SDS011;501;48.214;11.350;2022-09-12T16:27:32;1.70;;;1.60;;
1024;SDS011;501;48.214;11.350;2022-09-12T16:29:58;2.57;;;1.83;;
1024;SDS011;501;48.214;11.350;2022-09-12T16:32:24;1.70;;;1.60;;
1024;SDS011;501;48.214;11.350;2022-09-12T16:34:50;2.60;;;1.60;;
1024;SDS011;501;48.214;11.350;2022-09-12T16:37:16;2.40;;;2.20;;
1024;SDS011;501;48.214;11.350;2022-09-12T16:39:42;1.83;;;1.70;;
1024;SDS011;501;48.214;11.350;2022-09-12T16:42:08;1.70;;;1.60;;
1024;SDS011;501;48.214;11.350;2022-09-12T16:44:33;3.50;;;1.90;;
1024;SDS011;501;48.214;11.350;2022-09-12T16:46:59;2.03;;;1.93;;
1024;SDS011;501;48.214;11.350;2022-09-12T16:49:25;2.33;;;2.23;;
1024;SDS011;501;48.214;11.350;2022-09-12T16:51:50;2.33;;;2.13;;
1024;SDS011;501;48.214;11.350;2022-09-12T16:54:16;2.47;;;2.00;;
1024;SDS011;501;48.214;11.350;2022-09-12T16:56:41;2.27;;;2.17;;
1024;SDS011;501;48.214;11.350;2022-09-12T16:59:08;1.63;;;1.50;;
1024;SDS011;501;48.214;11.350;2022-09-12T17:01:36;2.40;;;2.20;;
1024;SDS011;501;48.214;11.350;2022-09-12T17:04:02;2.43;;;2.23;;
1024;SDS011;501;48.214;11.350;2022-09-12T17:06:28;2.57;;;2.37;;
1024;SDS011;501;48.214;11.350;2022-09-12T17:08:54;2.37;;;2.27;;
1024;SDS011;501;48.214;11.350;2022-09-12T17:11:43;2.40;;;2.20;;
1024;SDS011;501;48.214;11.350;2022-09-12T17:14:11;2.07;;;1.87;;
1024;SDS011;501;48.214;11.350;2022-09-12T17:16:38;2.53;;;2.33;;
1024;SDS011;501;48.214;11.350;2022-09-12T17:19:06;3.40;;;2.40;;
1024;SDS011;501;48.214;11.350;2022-09-12T17:21:34;2.23;;;2.13;;
1024;SDS011;501;48.214;11.350;2022-09-12T17:24:01;2.00;;;1.90;;
1024;SDS011;501;48.214;11.350;2022-09-12T17:26:27;4.67;;;2.20;;
1024;SDS011;501;48.214;11.350;2022-09-12T17:28:53;2.70;;;2.50;;
1024;SDS011;501;48.214;11.350;2022-09-12T17:31:18;2.50;;;2.30;;
1024;SDS011;501;48.214;11.350;2022-09-12T17:33:44;2.50;;;2.30;;
1024;SDS011;501;48.214;11.350;2022-09-12T17:36:13;2.77;;;2.47;;
1024;SDS011;501;48.214;11.350;2022-09-12T17:38:42;2.10;;;1.90;;
1024;SDS011;501;48.214;11.350;2022-09-12T17:41:13;3.60;;;2.80;;
1024;SDS011;501;48.214;11.350;2022-09-12T17:43:43;2.67;;;2.23;;
1024;SDS011;501;48.214;11.350;2022-09-12T17:46:10;2.63;;;2.43;;
1024;SDS011;501;48.214;11.350;2022-09-12T17:48:36;2.50;;;2.30;;
1024;SDS011;501;48.214;11.350;2022-09-12T17:51:05;3.97;;;2.37;;
1024;SDS011;501;48.214;11.350;2022-09-12T17:53:36;2.80;;;2.60;;
1024;SDS011;501;48.214;11.350;2022-09-12T17:56:05;2.60;;;2.40;;